createdAt,value
2022-12-18T00:02:33.081Z,-4.42
2022-12-18T00:06:05.227Z,-4.46
2022-12-18T00:09:39.177Z,-4.34
2022-12-18T00:13:06.646Z,-4.34
2022-12-18T00:16:36.284Z,-3.92
2022-12-18T00:20:00.235Z,-3.97
2022-12-18T00:23:30.482Z,-3.97
2022-12-18T00:26:52.232Z,-4.80
2022-12-18T00:30:14.338Z,-4.39
2022-12-18T00:33:37.231Z,-4.24
2022-12-18T00:36:59.283Z,-4.05
2022-12-18T00:40:30.399Z,-4.07
2022-12-18T00:43:52.250Z,-4.10
2022-12-18T00:47:14.058Z,-3.76
2022-12-18T00:50:52.417Z,-3.61
2022-12-18T00:54:20.270Z,-3.77
2022-12-18T00:57:42.689Z,-3.88
2022-12-18T01:01:08.306Z,-4.00
2022-12-18T01:04:33.357Z,-4.13
2022-12-18T01:08:03.382Z,-4.16
2022-12-18T01:11:41.053Z,-4.10
2022-12-18T01:15:04.620Z,-4.11
2022-12-18T01:18:46.055Z,-4.17
2022-12-18T01:22:07.882Z,-4.42
2022-12-18T01:25:32.784Z,-4.40
2022-12-18T01:28:58.947Z,-4.46
2022-12-18T01:32:31.462Z,-4.45
2022-12-18T01:36:01.150Z,-4.60
2022-12-18T01:39:24.286Z,-4.69
2022-12-18T01:42:52.011Z,-4.66
2022-12-18T01:46:17.524Z,-4.62
2022-12-18T01:49:40.523Z,-4.70
2022-12-18T01:53:15.101Z,-4.53
2022-12-18T01:56:38.068Z,-4.53
2022-12-18T02:00:12.588Z,-4.60
2022-12-18T02:03:47.265Z,-4.47
2022-12-18T02:07:44.963Z,-4.45
2022-12-18T02:11:20.966Z,-4.54
2022-12-18T02:15:07.452Z,-4.68
2022-12-18T02:18:45.276Z,-4.74
2022-12-18T02:22:46.943Z,-4.75
2022-12-18T02:26:47.616Z,-4.92
2022-12-18T02:30:10.463Z,-5.02
2022-12-18T02:33:37.051Z,-5.18
2022-12-18T02:37:12.095Z,-4.99
2022-12-18T02:40:39.470Z,-5.14
2022-12-18T02:44:20.130Z,-5.17
2022-12-18T02:47:48.763Z,-5.35
2022-12-18T02:51:45.815Z,-5.50
2022-12-18T02:55:33.548Z,-5.49
2022-12-18T02:59:10.865Z,-5.28
2022-12-18T03:03:13.086Z,-5.27
2022-12-18T03:06:49.376Z,-5.20
2022-12-18T03:10:19.782Z,-5.19
2022-12-18T03:13:54.428Z,-4.89
2022-12-18T03:17:23.313Z,-4.85
2022-12-18T03:20:52.473Z,-5.06
2022-12-18T03:24:30.688Z,-4.84
2022-12-18T03:27:58.794Z,-4.99
2022-12-18T03:31:27.197Z,-5.40
2022-12-18T03:34:53.599Z,-5.32
2022-12-18T03:38:19.635Z,-5.38
2022-12-18T03:42:25.653Z,-5.61
2022-12-18T03:46:03.958Z,-5.63
2022-12-18T03:49:49.445Z,-5.61
2022-12-18T03:53:38.317Z,-5.66
2022-12-18T03:57:13.671Z,-5.86
2022-12-18T04:00:36.645Z,-5.78
2022-12-18T04:04:05.983Z,-5.67
2022-12-18T04:07:34.761Z,-5.72
2022-12-18T04:11:06.022Z,-5.74
2022-12-18T04:14:28.821Z,-5.73
2022-12-18T04:17:52.259Z,-5.66
2022-12-18T04:21:18.012Z,-5.55
2022-12-18T04:24:40.927Z,-5.50
2022-12-18T04:28:14.501Z,-5.52
2022-12-18T04:31:41.538Z,-5.74
2022-12-18T04:35:07.373Z,-5.77
2022-12-18T04:38:30.379Z,-5.74
2022-12-18T04:42:09.645Z,-5.57
2022-12-18T04:45:33.283Z,-5.59
2022-12-18T04:48:57.272Z,-5.36
2022-12-18T04:52:19.108Z,-5.30
2022-12-18T04:55:40.947Z,-5.36
2022-12-18T04:59:02.817Z,-5.47
2022-12-18T05:02:24.920Z,-5.40
2022-12-18T05:05:50.700Z,-5.39
2022-12-18T05:09:12.651Z,-5.40
2022-12-18T05:12:55.502Z,-5.29
2022-12-18T05:16:18.405Z,-5.39
2022-12-18T05:19:40.336Z,-5.45
2022-12-18T05:23:02.144Z,-5.26
2022-12-18T05:26:24.045Z,-5.08
2022-12-18T05:29:45.966Z,-4.99
2022-12-18T05:33:07.842Z,-4.83
2022-12-18T05:36:30.887Z,-4.82
2022-12-18T05:39:52.868Z,-4.73
2022-12-18T05:43:20.790Z,-4.75
2022-12-18T05:46:43.201Z,-4.68
2022-12-18T05:50:05.982Z,-4.80
2022-12-18T05:53:27.792Z,-4.78
2022-12-18T05:57:00.486Z,-4.82
2022-12-18T06:00:22.537Z,-4.76
2022-12-18T06:03:45.416Z,-4.92
2022-12-18T06:07:07.824Z,-4.98
2022-12-18T06:10:29.705Z,-5.25
2022-12-18T06:13:58.622Z,-5.23
2022-12-18T06:17:34.232Z,-5.18
2022-12-18T06:21:05.501Z,-5.50
2022-12-18T06:24:34.162Z,-5.11
2022-12-18T06:27:55.986Z,-4.98
2022-12-18T06:31:17.911Z,-4.90
2022-12-18T06:34:56.311Z,-4.74
2022-12-18T06:38:19.237Z,-4.85
2022-12-18T06:41:41.038Z,-4.89
2022-12-18T06:45:04.277Z,-4.73
2022-12-18T06:48:26.219Z,-4.80
2022-12-18T06:51:48.178Z,-4.87
2022-12-18T06:55:12.338Z,-4.65
2022-12-18T06:58:40.866Z,-4.36
2022-12-18T07:02:05.954Z,-4.64
2022-12-18T07:05:28.037Z,-4.60
2022-12-18T07:08:59.913Z,-4.53
2022-12-18T07:12:24.032Z,-4.48
2022-12-18T07:15:45.855Z,-4.40
2022-12-18T07:19:26.253Z,-4.51
2022-12-18T07:22:52.071Z,-3.91
2022-12-18T07:26:24.584Z,-3.57
2022-12-18T07:29:47.481Z,-3.83
2022-12-18T07:33:10.417Z,-3.74
2022-12-18T07:36:32.381Z,-3.94
2022-12-18T07:39:59.390Z,-3.95
2022-12-18T07:43:21.241Z,-3.83
2022-12-18T07:46:43.188Z,-3.48
2022-12-18T07:50:07.139Z,-3.34
2022-12-18T07:53:30.009Z,-3.26
2022-12-18T07:56:52.703Z,-3.29
2022-12-18T08:00:15.374Z,-3.13
2022-12-18T08:03:39.236Z,-3.09
2022-12-18T08:07:01.215Z,-3.21
2022-12-18T08:10:25.057Z,-3.03
2022-12-18T08:13:46.911Z,-3.02
2022-12-18T08:17:08.783Z,-2.94
2022-12-18T08:20:30.842Z,-2.66
2022-12-18T08:23:55.526Z,-2.53
2022-12-18T08:27:32.743Z,-2.26
2022-12-18T08:30:54.728Z,-2.68
2022-12-18T08:34:17.820Z,-2.25
2022-12-18T08:37:39.661Z,-2.62
2022-12-18T08:41:09.640Z,-2.79
2022-12-18T08:44:40.399Z,-2.48
2022-12-18T08:48:04.291Z,-2.23
2022-12-18T08:51:26.061Z,-1.89
2022-12-18T08:54:47.884Z,-1.82
2022-12-18T08:58:09.702Z,-1.92
2022-12-18T09:01:31.772Z,-1.82
2022-12-18T09:04:57.560Z,-1.71
2022-12-18T09:08:19.633Z,-1.73
2022-12-18T09:11:56.651Z,-1.44
2022-12-18T09:15:20.437Z,-1.15
2022-12-18T09:18:43.407Z,-1.32
2022-12-18T09:22:06.678Z,-0.83
2022-12-18T09:25:36.567Z,-0.76
2022-12-18T09:28:58.422Z,-0.72
2022-12-18T09:32:22.663Z,-0.57
2022-12-18T09:35:46.245Z,-0.81
2022-12-18T09:39:09.207Z,-1.00
2022-12-18T09:42:33.438Z,-0.67
2022-12-18T09:46:12.440Z,-0.86
2022-12-18T09:49:43.854Z,-1.32
2022-12-18T09:53:23.633Z,-0.84
2022-12-18T09:57:02.659Z,-0.55
2022-12-18T10:00:26.409Z,-0.39
2022-12-18T10:03:58.923Z,-0.55
2022-12-18T10:07:40.062Z,-0.77
2022-12-18T10:11:27.603Z,-0.41
2022-12-18T10:15:00.838Z,-0.17
2022-12-18T10:18:51.272Z,-0.30
2022-12-18T10:22:55.960Z,-0.17
2022-12-18T10:26:20.199Z,-0.55
2022-12-18T10:29:50.215Z,-0.15
2022-12-18T10:33:20.026Z,0.22
2022-12-18T10:36:45.357Z,0.44
2022-12-18T10:40:21.497Z,0.39
2022-12-18T10:43:46.276Z,0.20
2022-12-18T10:47:18.568Z,0.50
2022-12-18T10:51:09.607Z,-0.30
2022-12-18T10:54:41.430Z,0.30
2022-12-18T10:58:36.546Z,0.30
2022-12-18T11:01:59.765Z,0.84
2022-12-18T11:05:31.175Z,0.68
2022-12-18T11:09:14.446Z,0.88
2022-12-18T11:12:44.661Z,0.56
2022-12-18T11:16:07.791Z,0.97
2022-12-18T11:19:41.870Z,0.78
2022-12-18T11:23:14.521Z,0.59
2022-12-18T11:26:37.127Z,1.33
2022-12-18T11:30:26.994Z,1.52
2022-12-18T11:34:30.503Z,1.73
2022-12-18T11:38:18.343Z,1.68
2022-12-18T11:42:12.910Z,1.82
2022-12-18T11:45:44.390Z,1.66
2022-12-18T11:49:35.419Z,1.60
2022-12-18T11:53:01.524Z,1.43
2022-12-18T11:56:48.523Z,1.31
2022-12-18T12:00:24.118Z,1.22
2022-12-18T12:04:30.969Z,1.06
2022-12-18T12:08:20.047Z,1.52
2022-12-18T12:12:14.450Z,1.50
2022-12-18T12:16:19.646Z,1.50
2022-12-18T12:20:03.395Z,1.32
2022-12-18T12:23:54.968Z,2.30
2022-12-18T12:28:10.534Z,1.83
2022-12-18T12:32:09.419Z,2.31
2022-12-18T12:36:14.217Z,1.70
2022-12-18T12:39:47.951Z,1.29
2022-12-18T12:43:36.193Z,1.16
2022-12-18T12:47:08.292Z,1.32
2022-12-18T12:50:35.191Z,1.30
2022-12-18T12:54:00.917Z,1.50
2022-12-18T12:57:37.949Z,1.23
2022-12-18T13:01:23.442Z,1.71
2022-12-18T13:04:53.558Z,1.90
2022-12-18T13:08:31.646Z,2.33
2022-12-18T13:12:30.520Z,2.54
2022-12-18T13:16:12.661Z,1.75
2022-12-18T13:19:36.229Z,1.54
2022-12-18T13:22:59.557Z,1.41
2022-12-18T13:26:28.810Z,1.45
2022-12-18T13:29:56.903Z,1.65
2022-12-18T13:33:24.649Z,1.70
2022-12-18T13:36:52.858Z,1.51
2022-12-18T13:40:39.737Z,1.23
2022-12-18T13:48:26.830Z,1.28
2022-12-18T13:51:57.188Z,1.39
2022-12-18T13:55:23.379Z,1.72
2022-12-18T13:58:45.254Z,2.11
2022-12-18T14:02:22.770Z,1.73
2022-12-18T14:06:17.632Z,1.46
2022-12-18T14:10:41.216Z,1.99
2022-12-18T14:13:43.278Z,2.01
2022-12-18T14:17:13.678Z,1.91
2022-12-18T14:20:46.574Z,2.04
2022-12-18T14:24:22.615Z,1.89
2022-12-18T14:28:07.586Z,2.07
2022-12-18T14:31:32.721Z,2.20
2022-12-18T14:34:57.968Z,1.96
2022-12-18T14:38:34.040Z,1.69
2022-12-18T14:42:01.921Z,1.69
2022-12-18T14:45:47.425Z,1.76
2022-12-18T14:49:29.730Z,1.78
2022-12-18T14:52:52.157Z,1.89
2022-12-18T14:56:24.677Z,2.15
2022-12-18T14:59:46.623Z,1.97
2022-12-18T15:03:22.303Z,1.72
2022-12-18T15:06:49.701Z,2.05
2022-12-18T15:10:30.174Z,2.14
2022-12-18T15:13:52.240Z,1.60
2022-12-18T15:17:23.904Z,1.97
2022-12-18T15:20:56.026Z,1.63
2022-12-18T15:24:31.713Z,1.43
2022-12-18T15:27:53.684Z,1.54
2022-12-18T15:31:17.426Z,1.48
2022-12-18T15:34:39.925Z,1.81
2022-12-18T15:38:04.906Z,1.70
2022-12-18T15:41:28.315Z,1.62
2022-12-18T15:44:50.169Z,1.67
2022-12-18T15:48:24.284Z,1.79
2022-12-18T15:52:00.627Z,1.76
2022-12-18T15:55:45.554Z,1.67
2022-12-18T15:59:18.239Z,2.02
2022-12-18T16:02:40.293Z,2.22
2022-12-18T16:06:04.531Z,2.18
2022-12-18T16:09:26.713Z,1.84
2022-12-18T16:12:48.916Z,1.59
2022-12-18T16:16:10.820Z,1.68
2022-12-18T16:19:34.704Z,1.99
2022-12-18T16:22:56.620Z,1.51
2022-12-18T16:26:18.498Z,1.36
2022-12-18T16:29:40.353Z,1.57
2022-12-18T16:33:02.205Z,1.23
2022-12-18T16:36:24.007Z,1.43
2022-12-18T16:39:45.935Z,1.53
2022-12-18T16:43:08.034Z,1.58
2022-12-18T16:46:30.692Z,2.09
2022-12-18T16:49:53.537Z,2.11
2022-12-18T16:53:17.544Z,1.89
2022-12-18T16:56:40.702Z,2.18
2022-12-18T17:00:06.273Z,2.21
2022-12-18T17:03:30.302Z,2.19
2022-12-18T17:06:59.294Z,2.05
2022-12-18T17:10:21.103Z,1.90
2022-12-18T17:13:43.411Z,2.14
2022-12-18T17:17:25.900Z,2.04
2022-12-18T17:20:47.851Z,2.20
2022-12-18T17:24:16.980Z,2.01
2022-12-18T17:27:45.171Z,1.67
2022-12-18T17:31:18.124Z,1.42
2022-12-18T17:34:42.052Z,1.72
2022-12-18T17:38:04.988Z,1.44
2022-12-18T17:41:32.019Z,1.74
2022-12-18T17:44:53.912Z,1.63
2022-12-18T17:48:18.105Z,1.97
2022-12-18T17:51:42.859Z,2.38
2022-12-18T17:55:07.994Z,2.31
2022-12-18T17:58:32.013Z,2.22
2022-12-18T18:01:57.043Z,2.10
2022-12-18T18:05:22.433Z,2.37
2022-12-18T18:08:44.453Z,2.25
2022-12-18T18:12:25.936Z,2.31
2022-12-18T18:15:57.137Z,2.64
2022-12-18T18:19:24.385Z,2.69
2022-12-18T18:22:46.312Z,2.52
2022-12-18T18:26:13.181Z,2.45
2022-12-18T18:29:36.378Z,2.50
2022-12-18T18:33:11.836Z,2.43
2022-12-18T18:36:34.092Z,3.07
2022-12-18T18:39:57.021Z,3.14
2022-12-18T18:43:20.878Z,2.99
2022-12-18T18:46:42.882Z,3.25
2022-12-18T18:50:12.852Z,3.55
2022-12-18T18:53:40.872Z,3.44
2022-12-18T18:57:20.399Z,3.68
2022-12-18T19:00:42.905Z,3.22
2022-12-18T19:04:05.495Z,3.32
2022-12-18T19:07:30.365Z,3.44
2022-12-18T19:10:59.346Z,3.32
2022-12-18T19:14:23.919Z,3.20
2022-12-18T19:17:47.250Z,3.11
2022-12-18T19:21:11.008Z,2.97
2022-12-18T19:24:46.104Z,3.03
2022-12-18T19:28:21.306Z,3.13
2022-12-18T19:31:45.090Z,3.20
2022-12-18T19:35:07.657Z,2.96
2022-12-18T19:38:31.261Z,3.07
2022-12-18T19:41:53.384Z,2.89
2022-12-18T19:45:18.393Z,3.24
2022-12-18T19:48:44.928Z,2.98
2022-12-18T19:52:12.783Z,2.91
2022-12-18T19:55:42.365Z,3.12
2022-12-18T19:59:11.913Z,3.10
2022-12-18T20:02:36.501Z,3.08
2022-12-18T20:06:15.548Z,3.07
2022-12-18T20:09:38.963Z,2.82
2022-12-18T20:13:09.711Z,3.41
2022-12-18T20:16:38.827Z,3.22
2022-12-18T20:20:01.039Z,3.37
2022-12-18T20:23:25.476Z,3.25
2022-12-18T20:26:58.371Z,3.13
2022-12-18T20:30:22.459Z,3.40
2022-12-18T20:33:47.660Z,3.33
2022-12-18T20:37:10.724Z,3.70
2022-12-18T20:40:34.674Z,3.74
2022-12-18T20:43:58.614Z,3.32
2022-12-18T20:47:23.886Z,3.14
2022-12-18T20:51:06.991Z,3.28
2022-12-18T20:54:30.014Z,3.26
2022-12-18T20:57:58.387Z,3.43
2022-12-18T21:01:30.446Z,4.03
2022-12-18T21:04:57.095Z,3.75
2022-12-18T21:08:21.007Z,3.51
2022-12-18T21:12:01.730Z,3.39
2022-12-18T21:15:28.706Z,3.47
2022-12-18T21:18:54.461Z,3.72
2022-12-18T21:22:17.210Z,3.63
2022-12-18T21:25:39.215Z,3.82
2022-12-18T21:29:05.899Z,3.84
2022-12-18T21:32:29.845Z,4.10
2022-12-18T21:35:55.434Z,3.99
2022-12-18T21:39:24.355Z,4.14
2022-12-18T21:43:06.988Z,4.01
2022-12-18T21:46:38.314Z,4.19
2022-12-18T21:50:01.425Z,3.46
2022-12-18T21:53:34.404Z,3.62
2022-12-18T21:57:03.718Z,3.58
2022-12-18T22:00:28.062Z,3.61
2022-12-18T22:04:00.760Z,3.48
2022-12-18T22:07:23.648Z,3.87
2022-12-18T22:10:49.568Z,3.62
2022-12-18T22:14:11.955Z,3.88
2022-12-18T22:17:41.649Z,3.81
2022-12-18T22:21:06.405Z,3.67
2022-12-18T22:24:29.224Z,3.68
2022-12-18T22:28:10.616Z,3.75
2022-12-18T22:31:32.680Z,3.54
2022-12-18T22:35:09.133Z,3.62
2022-12-18T22:38:34.006Z,3.52
2022-12-18T22:42:01.757Z,3.75
2022-12-18T22:45:25.842Z,3.51
2022-12-18T22:48:47.839Z,4.07
2022-12-18T22:52:10.232Z,3.92
2022-12-18T22:55:44.542Z,3.52
2022-12-18T22:59:15.340Z,3.73
2022-12-18T23:02:37.297Z,3.82
2022-12-18T23:06:10.407Z,3.71
2022-12-18T23:09:35.119Z,3.87
2022-12-18T23:13:12.454Z,3.98
2022-12-18T23:16:50.801Z,4.30
2022-12-18T23:20:15.045Z,4.36
2022-12-18T23:23:45.552Z,4.45
2022-12-18T23:27:11.362Z,4.73
2022-12-18T23:30:40.929Z,5.31
2022-12-18T23:34:06.366Z,5.28
2022-12-18T23:37:57.433Z,5.06
2022-12-18T23:41:15.194Z,5.27
2022-12-18T23:44:43.103Z,5.18
2022-12-18T23:48:04.982Z,4.93
2022-12-18T23:51:29.136Z,4.83
2022-12-18T23:54:52.085Z,4.82
2022-12-18T23:58:22.294Z,4.67
